createdAt,value
2022-10-24T00:01:22.521Z,17.53
2022-10-24T00:03:51.002Z,17.58
2022-10-24T00:06:19.848Z,17.53
2022-10-24T00:08:47.951Z,17.60
2022-10-24T00:11:18.644Z,17.55
2022-10-24T00:13:46.825Z,17.61
2022-10-24T00:16:13.754Z,17.59
2022-10-24T00:18:42.169Z,17.63
2022-10-24T00:21:09.437Z,17.63
2022-10-24T00:23:36.541Z,17.66
2022-10-24T00:26:04.322Z,17.71
2022-10-24T00:28:33.135Z,17.70
2022-10-24T00:31:00.588Z,17.70
2022-10-24T00:33:28.229Z,17.62
2022-10-24T00:35:54.961Z,17.67
2022-10-24T00:38:21.628Z,17.75
2022-10-24T00:40:48.556Z,17.75
2022-10-24T00:43:24.810Z,17.75
2022-10-24T00:45:56.214Z,17.62
2022-10-24T00:48:28.250Z,17.71
2022-10-24T00:51:01.616Z,17.73
2022-10-24T00:53:31.696Z,17.79
2022-10-24T00:56:02.527Z,17.76
2022-10-24T00:58:32.232Z,17.84
2022-10-24T01:00:59.606Z,17.85
2022-10-24T01:03:26.364Z,17.81
2022-10-24T01:06:15.304Z,17.77
2022-10-24T01:08:48.779Z,17.77
2022-10-24T01:11:18.418Z,17.77
2022-10-24T01:14:06.142Z,17.77
2022-10-24T01:16:47.617Z,17.67
2022-10-24T01:19:26.751Z,17.64
2022-10-24T01:21:57.786Z,17.70
2022-10-24T01:24:41.692Z,17.70
2022-10-24T01:27:20.946Z,17.50
2022-10-24T01:30:20.431Z,17.60
2022-10-24T01:33:06.225Z,17.65
2022-10-24T01:35:42.595Z,17.73
2022-10-24T01:38:31.669Z,17.76
2022-10-24T01:41:21.069Z,17.71
2022-10-24T01:44:02.341Z,17.73
2022-10-24T01:46:35.732Z,17.78
2022-10-24T01:49:13.236Z,17.91
2022-10-24T01:51:41.994Z,18.04
2022-10-24T01:54:11.151Z,18.03
2022-10-24T01:56:37.867Z,18.01
2022-10-24T01:59:29.068Z,18.10
2022-10-24T02:02:17.722Z,18.07
2022-10-24T02:04:54.037Z,18.04
2022-10-24T02:07:22.607Z,18.07
2022-10-24T02:09:55.372Z,18.06
2022-10-24T02:12:25.519Z,18.10
2022-10-24T02:15:00.746Z,18.05
2022-10-24T02:20:02.397Z,18.00
2022-10-24T02:22:55.601Z,18.05
2022-10-24T02:25:36.417Z,18.18
2022-10-24T02:28:20.527Z,18.09
2022-10-24T02:30:53.952Z,17.99
2022-10-24T02:33:21.661Z,18.08
2022-10-24T02:35:50.272Z,17.99
2022-10-24T02:38:23.027Z,17.95
2022-10-24T02:40:52.798Z,17.94
2022-10-24T02:43:21.856Z,18.01
2022-10-24T02:45:52.314Z,18.06
2022-10-24T02:48:23.374Z,17.98
2022-10-24T02:53:21.769Z,18.09
2022-10-24T02:55:48.716Z,18.08
2022-10-24T02:58:15.487Z,18.12
2022-10-24T03:00:42.625Z,18.10
2022-10-24T03:03:09.447Z,18.08
2022-10-24T03:05:36.374Z,18.03
2022-10-24T03:08:03.514Z,17.93
2022-10-24T03:10:30.726Z,18.06
2022-10-24T03:12:57.388Z,18.23
2022-10-24T03:15:24.517Z,18.06
2022-10-24T03:17:51.510Z,18.13
2022-10-24T03:20:18.426Z,18.16
2022-10-24T03:22:45.151Z,18.13
2022-10-24T03:25:11.951Z,18.23
2022-10-24T03:27:38.908Z,18.21
2022-10-24T03:30:07.114Z,18.17
2022-10-24T03:32:34.531Z,18.06
2022-10-24T03:35:02.364Z,18.04
2022-10-24T03:37:29.299Z,18.22
2022-10-24T03:39:56.805Z,18.08
2022-10-24T03:42:23.757Z,18.13
2022-10-24T03:44:50.573Z,18.21
2022-10-24T03:47:17.711Z,18.37
2022-10-24T03:49:44.652Z,18.42
2022-10-24T03:52:11.848Z,18.15
2022-10-24T03:54:39.491Z,18.20
2022-10-24T03:57:06.096Z,18.03
2022-10-24T03:59:33.227Z,18.14
2022-10-24T04:02:01.360Z,18.14
2022-10-24T04:04:28.908Z,18.11
2022-10-24T04:06:55.790Z,18.19
2022-10-24T04:09:22.834Z,18.14
2022-10-24T04:11:51.203Z,17.93
2022-10-24T04:14:18.340Z,18.06
2022-10-24T04:16:44.911Z,17.95
2022-10-24T04:19:11.936Z,18.04
2022-10-24T04:21:39.050Z,18.09
2022-10-24T04:24:05.989Z,18.12
2022-10-24T04:26:32.572Z,18.00
2022-10-24T04:28:59.148Z,17.97
2022-10-24T04:31:26.318Z,18.03
2022-10-24T04:33:53.192Z,17.98
2022-10-24T04:36:21.033Z,17.87
2022-10-24T04:38:47.658Z,17.90
2022-10-24T04:41:14.462Z,17.89
2022-10-24T04:43:41.071Z,17.91
2022-10-24T04:46:08.087Z,18.04
2022-10-24T04:48:35.573Z,18.09
2022-10-24T04:51:02.257Z,18.16
2022-10-24T04:53:28.955Z,18.13
2022-10-24T04:55:55.953Z,18.17
2022-10-24T04:58:22.857Z,18.09
2022-10-24T05:00:50.245Z,18.07
2022-10-24T05:03:18.128Z,18.06
2022-10-24T05:05:46.602Z,18.04
2022-10-24T05:08:13.319Z,18.07
2022-10-24T05:10:40.054Z,18.05
2022-10-24T05:13:07.021Z,18.00
2022-10-24T05:15:33.731Z,18.04
2022-10-24T05:18:00.670Z,18.00
2022-10-24T05:20:28.186Z,18.08
2022-10-24T05:22:54.823Z,18.00
2022-10-24T05:25:21.643Z,17.85
2022-10-24T05:27:48.435Z,17.89
2022-10-24T05:30:15.485Z,17.85
2022-10-24T05:32:42.546Z,17.93
2022-10-24T05:35:09.880Z,17.75
2022-10-24T05:37:37.146Z,17.68
2022-10-24T05:40:04.128Z,17.70
2022-10-24T05:42:31.052Z,17.80
2022-10-24T05:44:58.007Z,17.83
2022-10-24T05:47:26.928Z,17.80
2022-10-24T05:49:55.835Z,17.77
2022-10-24T05:52:22.648Z,17.78
2022-10-24T05:54:55.729Z,17.66
2022-10-24T05:57:33.399Z,17.72
2022-10-24T06:00:00.602Z,17.71
2022-10-24T06:02:27.561Z,17.81
2022-10-24T06:04:56.052Z,17.84
2022-10-24T06:07:23.479Z,17.63
2022-10-24T06:09:50.498Z,17.62
2022-10-24T06:12:17.231Z,17.51
2022-10-24T06:14:44.728Z,17.55
2022-10-24T06:17:11.969Z,17.68
2022-10-24T06:19:39.595Z,17.83
2022-10-24T06:22:07.261Z,17.84
2022-10-24T06:24:35.703Z,17.86
2022-10-24T06:27:02.662Z,17.97
2022-10-24T06:29:29.666Z,17.92
2022-10-24T06:31:56.817Z,17.91
2022-10-24T06:34:23.423Z,17.95
2022-10-24T06:36:50.343Z,17.86
2022-10-24T06:39:17.834Z,17.79
2022-10-24T06:41:44.661Z,17.75
2022-10-24T06:44:14.704Z,17.59
2022-10-24T06:46:41.344Z,17.74
2022-10-24T06:49:07.940Z,17.81
2022-10-24T06:51:34.726Z,17.76
2022-10-24T06:54:01.443Z,17.68
2022-10-24T06:56:28.082Z,17.71
2022-10-24T06:58:54.718Z,17.80
2022-10-24T07:01:24.793Z,17.66
2022-10-24T07:03:52.852Z,17.68
2022-10-24T07:06:26.785Z,17.70
2022-10-24T07:08:56.201Z,17.83
2022-10-24T07:11:23.190Z,17.82
2022-10-24T07:13:50.687Z,17.77
2022-10-24T07:16:18.446Z,17.68
2022-10-24T07:18:46.493Z,17.56
2022-10-24T07:21:20.776Z,17.66
2022-10-24T07:23:47.578Z,17.64
2022-10-24T07:26:16.473Z,17.59
2022-10-24T07:28:46.461Z,17.67
2022-10-24T07:31:17.971Z,17.71
2022-10-24T07:33:44.609Z,17.83
2022-10-24T07:36:19.818Z,17.86
2022-10-24T07:38:51.791Z,17.81
2022-10-24T07:41:18.991Z,17.65
2022-10-24T07:43:46.317Z,17.60
2022-10-24T07:46:15.546Z,17.47
2022-10-24T07:48:45.188Z,17.58
2022-10-24T07:51:14.346Z,17.70
2022-10-24T07:53:42.024Z,17.81
2022-10-24T07:56:13.112Z,17.66
2022-10-24T07:58:40.599Z,17.77
2022-10-24T08:01:10.948Z,17.75
2022-10-24T08:03:38.285Z,17.78
2022-10-24T08:06:11.042Z,17.74
2022-10-24T08:08:38.396Z,17.74
2022-10-24T08:11:18.616Z,17.70
2022-10-24T08:13:46.020Z,17.62
2022-10-24T08:16:14.360Z,17.68
2022-10-24T08:18:41.071Z,17.67
2022-10-24T08:21:10.297Z,17.66
2022-10-24T08:23:41.980Z,17.71
2022-10-24T08:26:13.989Z,17.68
2022-10-24T08:28:41.386Z,17.85
2022-10-24T08:31:11.812Z,17.84
2022-10-24T08:33:39.893Z,17.84
2022-10-24T08:36:32.374Z,17.71
2022-10-24T08:39:00.883Z,17.64
2022-10-24T08:41:38.469Z,17.72
2022-10-24T08:44:16.436Z,17.68
2022-10-24T08:46:51.476Z,17.71
2022-10-24T08:49:57.495Z,17.74
2022-10-24T08:52:26.797Z,17.76
2022-10-24T08:54:55.539Z,17.74
2022-10-24T08:57:29.565Z,17.75
2022-10-24T09:00:01.211Z,17.89
2022-10-24T09:02:33.853Z,17.85
2022-10-24T09:05:09.522Z,17.77
2022-10-24T09:07:37.203Z,17.92
2022-10-24T09:10:46.739Z,18.02
2022-10-24T09:13:15.362Z,17.83
2022-10-24T09:15:45.078Z,17.78
2022-10-24T09:18:21.132Z,17.74
2022-10-24T09:20:50.575Z,17.90
2022-10-24T09:23:19.249Z,17.94
2022-10-24T09:25:50.284Z,17.92
2022-10-24T09:28:17.594Z,17.78
2022-10-24T09:30:44.613Z,17.77
2022-10-24T09:33:33.745Z,17.92
2022-10-24T09:36:04.371Z,17.87
2022-10-24T09:38:36.651Z,17.85
2022-10-24T09:41:15.411Z,18.02
2022-10-24T09:43:45.867Z,18.04
2022-10-24T09:46:16.804Z,18.05
2022-10-24T09:48:58.025Z,18.02
2022-10-24T09:51:30.753Z,17.94
2022-10-24T09:54:02.306Z,17.80
2022-10-24T09:56:40.445Z,17.71
2022-10-24T09:59:41.516Z,17.57
2022-10-24T10:02:12.755Z,17.53
2022-10-24T10:04:40.855Z,17.62
2022-10-24T10:07:19.819Z,17.73
2022-10-24T10:09:58.946Z,17.76
2022-10-24T10:12:36.151Z,17.83
2022-10-24T10:15:24.233Z,17.97
2022-10-24T10:17:54.448Z,18.05
2022-10-24T10:20:41.957Z,17.95
2022-10-24T10:23:24.591Z,17.89
2022-10-24T10:26:20.655Z,17.90
2022-10-24T10:28:53.105Z,17.94
2022-10-24T10:31:23.442Z,17.83
2022-10-24T10:34:21.829Z,17.84
2022-10-24T10:37:07.280Z,17.88
2022-10-24T10:39:49.785Z,17.90
2022-10-24T10:42:38.723Z,17.80
2022-10-24T10:45:19.154Z,17.78
2022-10-24T10:47:56.271Z,17.85
2022-10-24T10:50:41.064Z,17.95
2022-10-24T10:53:52.958Z,18.18
2022-10-24T10:56:49.810Z,18.14
2022-10-24T10:59:53.729Z,18.10
2022-10-24T11:02:26.151Z,18.11
2022-10-24T11:05:23.944Z,18.06
2022-10-24T11:08:02.544Z,18.10
2022-10-24T11:10:37.007Z,18.17
2022-10-24T11:13:09.897Z,18.25
2022-10-24T11:15:42.338Z,18.31
2022-10-24T11:18:14.245Z,18.32
2022-10-24T11:20:53.175Z,18.34
2022-10-24T11:23:35.723Z,18.39
2022-10-24T11:26:07.760Z,18.45
2022-10-24T11:28:55.883Z,18.39
2022-10-24T11:31:28.580Z,18.31
2022-10-24T11:34:05.737Z,18.27
2022-10-24T11:36:42.800Z,18.20
2022-10-24T11:39:22.675Z,18.12
2022-10-24T11:42:05.680Z,18.22
2022-10-24T11:45:06.328Z,18.34
2022-10-24T11:47:52.044Z,18.28
2022-10-24T11:50:25.960Z,18.22
2022-10-24T11:52:58.212Z,18.43
2022-10-24T11:55:31.480Z,18.55
2022-10-24T11:58:00.008Z,18.37
2022-10-24T12:00:37.013Z,18.37
2022-10-24T12:03:42.164Z,18.20
2022-10-24T12:06:38.293Z,18.27
2022-10-24T12:09:13.643Z,18.30
2022-10-24T12:12:25.332Z,18.17
2022-10-24T12:15:40.635Z,18.35
2022-10-24T12:18:11.149Z,18.36
2022-10-24T12:20:39.727Z,18.29
2022-10-24T12:23:06.727Z,18.38
2022-10-24T12:25:38.140Z,18.33
2022-10-24T12:28:12.127Z,18.34
2022-10-24T12:30:39.747Z,18.15
2022-10-24T12:33:25.036Z,18.16
2022-10-24T12:35:57.093Z,18.12
2022-10-24T12:38:27.151Z,17.97
2022-10-24T12:40:55.833Z,18.08
2022-10-24T12:43:33.352Z,18.12
2022-10-24T12:46:23.428Z,18.14
2022-10-24T12:48:56.382Z,18.37
2022-10-24T12:51:36.376Z,18.41
2022-10-24T12:54:12.213Z,18.31
2022-10-24T12:56:51.211Z,18.29
2022-10-24T12:59:33.268Z,18.30
2022-10-24T13:02:37.255Z,18.28
2022-10-24T13:05:07.006Z,18.35
2022-10-24T13:08:07.209Z,18.34
2022-10-24T13:10:45.874Z,18.47
2022-10-24T13:13:29.951Z,18.49
2022-10-24T13:16:25.936Z,18.43
2022-10-24T13:19:16.939Z,18.44
2022-10-24T13:21:55.773Z,18.23
2022-10-24T13:24:30.944Z,18.35
2022-10-24T13:26:58.064Z,18.38
2022-10-24T13:29:27.420Z,18.43
2022-10-24T13:32:18.586Z,18.39
2022-10-24T13:34:50.757Z,18.46
2022-10-24T13:37:30.196Z,18.55
2022-10-24T13:40:27.728Z,18.37
2022-10-24T13:42:58.755Z,18.28
2022-10-24T13:45:46.683Z,18.29
2022-10-24T13:48:23.731Z,18.22
2022-10-24T13:51:03.738Z,18.12
2022-10-24T13:53:41.762Z,18.21
2022-10-24T13:56:13.395Z,18.23
2022-10-24T13:58:44.748Z,18.33
2022-10-24T14:01:20.683Z,18.32
2022-10-24T14:03:49.546Z,18.34
2022-10-24T14:06:16.396Z,18.34
2022-10-24T14:08:50.957Z,18.42
2022-10-24T14:11:25.511Z,18.14
2022-10-24T14:13:55.235Z,18.22
2022-10-24T14:16:30.560Z,18.24
2022-10-24T14:19:27.096Z,18.14
2022-10-24T14:21:56.395Z,17.98
2022-10-24T14:24:23.587Z,17.84
2022-10-24T14:26:53.323Z,17.52
2022-10-24T14:29:32.400Z,17.28
2022-10-24T14:32:04.913Z,16.89
2022-10-24T14:34:36.447Z,16.93
2022-10-24T14:37:08.408Z,16.98
2022-10-24T14:39:35.553Z,16.89
2022-10-24T14:42:03.021Z,16.95
2022-10-24T14:44:29.915Z,16.92
2022-10-24T14:47:04.471Z,16.90
2022-10-24T14:49:36.575Z,16.65
2022-10-24T14:52:11.735Z,16.69
2022-10-24T14:54:39.068Z,16.71
2022-10-24T14:57:14.522Z,16.74
2022-10-24T14:59:45.533Z,16.51
2022-10-24T15:02:31.432Z,16.49
2022-10-24T15:05:15.970Z,16.31
2022-10-24T15:07:57.135Z,16.07
2022-10-24T15:10:35.657Z,15.77
2022-10-24T15:13:16.116Z,15.64
2022-10-24T15:15:56.420Z,15.78
2022-10-24T15:18:31.510Z,15.77
2022-10-24T15:21:07.241Z,15.96
2022-10-24T15:23:36.693Z,15.75
2022-10-24T15:26:18.503Z,15.86
2022-10-24T15:28:54.044Z,15.88
2022-10-24T15:31:22.021Z,15.94
2022-10-24T15:33:48.789Z,16.06
2022-10-24T15:36:30.782Z,16.10
2022-10-24T15:39:10.622Z,16.20
2022-10-24T15:41:39.276Z,16.22
2022-10-24T15:44:25.438Z,16.24
2022-10-24T15:46:52.958Z,16.34
2022-10-24T15:49:19.716Z,16.41
2022-10-24T15:51:50.246Z,16.54
2022-10-24T15:54:20.524Z,16.54
2022-10-24T15:56:47.228Z,16.54
2022-10-24T15:59:14.338Z,16.63
2022-10-24T16:01:52.323Z,16.72
2022-10-24T16:04:20.802Z,16.85
2022-10-24T16:06:48.215Z,16.91
2022-10-24T16:09:18.095Z,16.90
2022-10-24T16:11:45.239Z,17.05
2022-10-24T16:14:17.962Z,17.08
2022-10-24T16:16:45.232Z,17.20
2022-10-24T16:19:12.282Z,17.09
2022-10-24T16:21:40.528Z,17.10
2022-10-24T16:24:08.175Z,16.85
2022-10-24T16:26:35.233Z,16.73
2022-10-24T16:29:01.832Z,16.71
2022-10-24T16:31:28.470Z,16.76
2022-10-24T16:33:55.035Z,16.81
2022-10-24T16:36:24.620Z,16.79
2022-10-24T16:38:52.641Z,16.82
2022-10-24T16:41:24.833Z,16.87
2022-10-24T16:43:55.821Z,16.82
2022-10-24T16:46:23.864Z,16.90
2022-10-24T16:48:51.429Z,16.88
2022-10-24T16:51:27.284Z,17.07
2022-10-24T16:53:53.928Z,17.00
2022-10-24T16:56:20.942Z,17.09
2022-10-24T16:58:47.520Z,17.08
2022-10-24T17:01:16.015Z,17.04
2022-10-24T17:03:44.868Z,17.02
2022-10-24T17:06:11.732Z,17.00
2022-10-24T17:08:38.785Z,16.91
2022-10-24T17:11:20.171Z,16.88
2022-10-24T17:13:53.092Z,16.81
2022-10-24T17:16:20.833Z,16.80
2022-10-24T17:19:04.752Z,16.90
2022-10-24T17:21:33.054Z,17.01
2022-10-24T17:24:00.038Z,17.01
2022-10-24T17:26:27.848Z,16.99
2022-10-24T17:28:54.518Z,16.99
2022-10-24T17:31:21.788Z,17.12
2022-10-24T17:33:48.600Z,17.18
2022-10-24T17:36:26.873Z,17.19
2022-10-24T17:39:09.219Z,17.16
2022-10-24T17:41:40.588Z,17.13
2022-10-24T17:44:12.630Z,17.09
2022-10-24T17:46:39.447Z,17.22
2022-10-24T17:49:08.043Z,17.10
2022-10-24T17:51:37.408Z,17.21
2022-10-24T17:54:05.828Z,17.21
2022-10-24T17:56:32.630Z,17.29
2022-10-24T17:58:59.184Z,17.26
2022-10-24T18:01:25.822Z,17.06
2022-10-24T18:03:52.763Z,16.96
2022-10-24T18:06:19.488Z,16.95
2022-10-24T18:08:47.681Z,17.00
2022-10-24T18:11:14.703Z,16.85
2022-10-24T18:13:41.324Z,16.73
2022-10-24T18:16:11.049Z,16.69
2022-10-24T18:18:39.945Z,16.67
2022-10-24T18:21:16.523Z,16.79
2022-10-24T18:23:43.654Z,16.78
2022-10-24T18:26:17.779Z,16.73
2022-10-24T18:28:47.290Z,16.76
2022-10-24T18:31:16.886Z,16.79
2022-10-24T18:33:44.303Z,16.68
2022-10-24T18:36:19.654Z,16.72
2022-10-24T18:38:47.133Z,16.75
2022-10-24T18:41:22.449Z,16.68
2022-10-24T18:43:49.686Z,16.90
2022-10-24T18:46:16.803Z,16.72
2022-10-24T18:48:44.115Z,16.60
2022-10-24T18:51:37.234Z,16.52
2022-10-24T18:54:06.903Z,16.53
2022-10-24T18:56:35.867Z,16.67
2022-10-24T18:59:02.598Z,16.79
2022-10-24T19:02:01.447Z,16.65
2022-10-24T19:04:28.516Z,16.58
2022-10-24T19:06:59.689Z,16.61
2022-10-24T19:09:26.829Z,16.64
2022-10-24T19:11:53.702Z,16.74
2022-10-24T19:14:21.009Z,16.86
2022-10-24T19:16:49.445Z,17.00
2022-10-24T19:19:26.155Z,16.91
2022-10-24T19:21:53.247Z,16.97
2022-10-24T19:24:20.104Z,16.92
2022-10-24T19:26:47.243Z,17.01
2022-10-24T19:29:13.961Z,16.85
2022-10-24T19:31:40.748Z,16.70
2022-10-24T19:34:09.287Z,16.68
2022-10-24T19:36:36.461Z,16.64
2022-10-24T19:39:03.826Z,16.62
2022-10-24T19:41:30.481Z,16.52
2022-10-24T19:43:57.069Z,16.54
2022-10-24T19:46:23.698Z,16.52
2022-10-24T19:48:51.114Z,16.51
2022-10-24T19:51:19.479Z,16.50
2022-10-24T19:53:47.157Z,16.55
2022-10-24T19:56:25.033Z,16.51
2022-10-24T19:58:53.557Z,16.57
2022-10-24T20:01:22.645Z,16.50
2022-10-24T20:03:50.095Z,16.47
2022-10-24T20:06:17.961Z,16.34
2022-10-24T20:08:49.175Z,16.30
2022-10-24T20:11:20.195Z,16.38
2022-10-24T20:13:47.576Z,16.28
2022-10-24T20:16:14.464Z,16.19
2022-10-24T20:18:43.422Z,16.24
2022-10-24T20:21:13.232Z,16.29
2022-10-24T20:23:41.479Z,16.27
2022-10-24T20:26:12.059Z,16.07
2022-10-24T20:28:44.968Z,16.07
2022-10-24T20:31:24.266Z,15.94
2022-10-24T20:33:51.195Z,15.78
2022-10-24T20:36:18.001Z,15.60
2022-10-24T20:38:45.214Z,15.54
2022-10-24T20:41:12.057Z,15.46
2022-10-24T20:43:38.920Z,15.48
2022-10-24T20:46:06.653Z,15.48
2022-10-24T20:48:34.162Z,15.42
2022-10-24T20:51:12.537Z,15.35
2022-10-24T20:53:39.839Z,15.43
2022-10-24T20:56:14.597Z,15.38
2022-10-24T20:58:43.282Z,15.43
2022-10-24T21:01:12.555Z,15.44
2022-10-24T21:03:40.320Z,15.38
2022-10-24T21:06:15.720Z,15.33
2022-10-24T21:08:42.541Z,15.35
2022-10-24T21:11:13.197Z,15.27
2022-10-24T21:13:39.872Z,15.26
2022-10-24T21:16:06.720Z,15.16
2022-10-24T21:18:33.408Z,15.17
2022-10-24T21:21:09.834Z,15.15
2022-10-24T21:23:36.514Z,15.05
2022-10-24T21:26:14.235Z,15.10
2022-10-24T21:28:41.436Z,15.11
2022-10-24T21:31:13.981Z,15.10
2022-10-24T21:33:43.909Z,15.03
2022-10-24T21:36:16.420Z,15.14
2022-10-24T21:38:46.665Z,15.01
2022-10-24T21:41:13.362Z,15.13
2022-10-24T21:43:41.643Z,15.02
2022-10-24T21:46:09.507Z,15.03
2022-10-24T21:48:36.909Z,15.08
2022-10-24T21:51:17.256Z,15.20
2022-10-24T21:53:49.973Z,15.34
2022-10-24T21:56:20.067Z,15.39
2022-10-24T21:58:49.023Z,15.34
2022-10-24T22:01:18.284Z,15.26
2022-10-24T22:03:46.203Z,15.22
2022-10-24T22:06:18.505Z,15.22
2022-10-24T22:08:46.932Z,15.25
2022-10-24T22:11:17.479Z,15.23
2022-10-24T22:13:44.957Z,15.17
2022-10-24T22:16:13.168Z,15.21
2022-10-24T22:18:40.248Z,15.20
2022-10-24T22:21:09.863Z,15.17
2022-10-24T22:23:37.446Z,15.16
2022-10-24T22:26:04.630Z,15.03
2022-10-24T22:28:31.729Z,15.28
2022-10-24T22:30:58.597Z,15.36
2022-10-24T22:33:37.168Z,15.39
2022-10-24T22:36:17.646Z,15.32
2022-10-24T22:38:44.521Z,15.30
2022-10-24T22:41:12.148Z,15.22
2022-10-24T22:43:39.449Z,15.22
2022-10-24T22:46:34.905Z,15.15
2022-10-24T22:49:15.256Z,15.09
2022-10-24T22:51:42.260Z,15.15
2022-10-24T22:54:17.787Z,15.19
2022-10-24T22:56:44.989Z,15.19
2022-10-24T22:59:12.009Z,15.29
2022-10-24T23:02:04.352Z,15.24
2022-10-24T23:04:38.792Z,15.29
2022-10-24T23:07:10.054Z,15.25
2022-10-24T23:09:36.694Z,15.38
2022-10-24T23:12:11.334Z,15.34
2022-10-24T23:14:38.213Z,15.47
2022-10-24T23:17:05.193Z,15.48
2022-10-24T23:19:32.838Z,15.45
2022-10-24T23:22:18.208Z,15.39
2022-10-24T23:24:45.954Z,15.33
2022-10-24T23:27:13.364Z,15.33
2022-10-24T23:29:45.813Z,15.19
2022-10-24T23:32:23.569Z,15.24
2022-10-24T23:34:51.835Z,15.33
2022-10-24T23:37:32.244Z,15.26
2022-10-24T23:40:30.012Z,15.32
2022-10-24T23:42:57.450Z,15.25
2022-10-24T23:45:27.804Z,15.33
2022-10-24T23:48:32.031Z,15.21
2022-10-24T23:51:09.085Z,15.21
2022-10-24T23:54:08.903Z,15.26
2022-10-24T23:56:35.798Z,15.27
2022-10-24T23:59:02.774Z,15.19
